createdAt,value
2023-05-14T00:01:25.832Z,19.65
2023-05-14T00:03:53.084Z,15.32
2023-05-14T00:06:20.487Z,17.37
2023-05-14T00:08:47.789Z,17.10
2023-05-14T00:11:15.118Z,17.05
2023-05-14T00:13:42.425Z,15.93
2023-05-14T00:16:09.796Z,16.40
2023-05-14T00:18:37.248Z,16.07
2023-05-14T00:21:07.065Z,17.45
2023-05-14T00:23:34.412Z,18.48
2023-05-14T00:26:01.597Z,17.13
2023-05-14T00:28:28.835Z,17.30
2023-05-14T00:30:57.135Z,18.93
2023-05-14T00:33:24.516Z,16.83
2023-05-14T00:35:52.008Z,17.20
2023-05-14T00:38:19.686Z,17.83
2023-05-14T00:40:51.486Z,16.33
2023-05-14T00:43:22.619Z,16.37
2023-05-14T00:45:53.879Z,16.13
2023-05-14T00:48:21.644Z,16.15
2023-05-14T00:50:50.307Z,16.65
2023-05-14T00:53:17.755Z,17.15
2023-05-14T00:55:46.145Z,16.03
2023-05-14T00:58:14.356Z,15.65
2023-05-14T01:00:42.104Z,16.65
2023-05-14T01:03:12.523Z,15.50
2023-05-14T01:05:52.119Z,15.63
2023-05-14T01:08:26.170Z,17.07
2023-05-14T01:10:56.115Z,16.55
2023-05-14T01:13:49.527Z,16.73
2023-05-14T01:16:20.190Z,14.38
2023-05-14T01:18:49.498Z,16.20
2023-05-14T01:21:24.917Z,16.00
2023-05-14T01:23:52.160Z,17.63
2023-05-14T01:26:20.956Z,16.88
2023-05-14T01:28:52.548Z,15.43
2023-05-14T01:31:25.392Z,18.23
2023-05-14T01:33:55.804Z,17.73
2023-05-14T01:36:23.796Z,16.40
2023-05-14T01:38:51.370Z,19.45
2023-05-14T01:41:19.975Z,16.25
2023-05-14T01:43:47.545Z,18.38
2023-05-14T01:46:14.752Z,15.23
2023-05-14T01:48:41.979Z,19.42
2023-05-14T01:51:09.180Z,16.27
2023-05-14T01:53:36.500Z,17.13
2023-05-14T01:56:03.711Z,18.88
2023-05-14T01:58:31.115Z,19.30
2023-05-14T02:00:58.326Z,19.33
2023-05-14T02:03:25.975Z,17.40
2023-05-14T02:05:53.172Z,19.15
2023-05-14T02:08:20.990Z,18.52
2023-05-14T02:10:48.217Z,19.70
2023-05-14T02:13:15.565Z,18.70
2023-05-14T02:15:42.972Z,18.90
2023-05-14T02:18:10.423Z,18.58
2023-05-14T02:20:37.739Z,19.00
2023-05-14T02:23:05.028Z,17.80
2023-05-14T02:25:33.537Z,17.98
2023-05-14T02:28:00.864Z,19.33
2023-05-14T02:30:28.160Z,18.13
2023-05-14T02:32:55.547Z,18.92
2023-05-14T02:35:23.090Z,20.83
2023-05-14T02:37:50.387Z,19.52
2023-05-14T02:40:17.797Z,18.23
2023-05-14T02:42:45.060Z,24.90
2023-05-14T02:45:14.777Z,18.88
2023-05-14T02:47:42.319Z,22.03
2023-05-14T02:50:10.376Z,20.38
2023-05-14T02:52:37.659Z,20.52
2023-05-14T02:55:05.354Z,20.33
2023-05-14T02:57:32.725Z,20.38
2023-05-14T03:00:02.389Z,18.67
2023-05-14T03:02:30.533Z,19.48
2023-05-14T03:04:58.281Z,19.67
2023-05-14T03:07:25.502Z,17.80
2023-05-14T03:09:52.818Z,22.55
2023-05-14T03:12:21.235Z,20.23
2023-05-14T03:14:48.558Z,20.20
2023-05-14T03:17:15.750Z,19.17
2023-05-14T03:19:43.054Z,19.98
2023-05-14T03:22:10.375Z,18.27
2023-05-14T03:24:40.087Z,20.40
2023-05-14T03:27:07.584Z,19.25
2023-05-14T03:29:34.853Z,21.75
2023-05-14T03:32:02.033Z,19.45
2023-05-14T03:34:29.332Z,20.10
2023-05-14T03:36:56.530Z,18.90
2023-05-14T03:39:23.974Z,18.25
2023-05-14T03:41:51.362Z,21.42
2023-05-14T03:44:18.587Z,22.23
2023-05-14T03:46:45.884Z,19.65
2023-05-14T03:49:13.084Z,22.83
2023-05-14T03:51:40.737Z,20.67
2023-05-14T03:54:08.360Z,22.40
2023-05-14T03:56:35.812Z,20.55
2023-05-14T03:59:03.148Z,19.05
2023-05-14T04:01:30.620Z,20.43
2023-05-14T04:03:58.103Z,17.13
2023-05-14T04:06:25.606Z,18.60
2023-05-14T04:08:52.802Z,20.08
2023-05-14T04:11:20.075Z,19.92
2023-05-14T04:13:47.292Z,18.60
2023-05-14T04:16:14.613Z,22.45
2023-05-14T04:18:42.006Z,20.20
2023-05-14T04:21:10.656Z,17.30
2023-05-14T04:23:39.075Z,20.35
2023-05-14T04:26:06.401Z,21.23
2023-05-14T04:28:33.607Z,21.33
2023-05-14T04:31:01.617Z,21.40
2023-05-14T04:33:28.779Z,17.83
2023-05-14T04:35:56.097Z,17.50
2023-05-14T04:38:23.464Z,19.87
2023-05-14T04:40:50.855Z,18.88
2023-05-14T04:43:18.021Z,20.33
2023-05-14T04:45:46.827Z,19.52
2023-05-14T04:48:14.054Z,21.52
2023-05-14T04:50:41.270Z,18.53
2023-05-14T04:53:08.684Z,18.20
2023-05-14T04:55:36.031Z,21.50
2023-05-14T04:58:03.736Z,18.63
2023-05-14T05:00:31.036Z,17.77
2023-05-14T05:03:00.496Z,20.20
2023-05-14T05:05:32.457Z,17.63
2023-05-14T05:07:59.752Z,17.80
2023-05-14T05:10:27.021Z,18.33
2023-05-14T05:12:54.421Z,16.55
2023-05-14T05:15:24.119Z,16.57
2023-05-14T05:17:54.688Z,17.52
2023-05-14T05:20:22.140Z,15.60
2023-05-14T05:22:49.582Z,16.15
2023-05-14T05:25:17.065Z,15.10
2023-05-14T05:27:44.345Z,14.20
2023-05-14T05:30:11.877Z,16.15
2023-05-14T05:32:39.417Z,16.75
2023-05-14T05:35:07.126Z,14.95
2023-05-14T05:37:34.610Z,14.48
2023-05-14T05:40:01.768Z,17.57
2023-05-14T05:42:29.098Z,13.52
2023-05-14T05:44:56.761Z,13.63
2023-05-14T05:47:24.006Z,17.80
2023-05-14T05:49:51.323Z,15.80
2023-05-14T05:52:18.608Z,18.00
2023-05-14T05:54:45.972Z,14.43
2023-05-14T05:57:13.243Z,14.57
2023-05-14T05:59:40.421Z,13.60
2023-05-14T06:02:07.631Z,14.05
2023-05-14T06:04:34.894Z,13.07
2023-05-14T06:07:02.745Z,15.27
2023-05-14T06:09:30.023Z,11.65
2023-05-14T06:11:57.157Z,15.35
2023-05-14T06:14:24.448Z,15.85
2023-05-14T06:16:51.801Z,13.30
2023-05-14T06:19:19.282Z,13.60
2023-05-14T06:21:46.665Z,12.93
2023-05-14T06:24:13.850Z,13.35
2023-05-14T06:26:41.169Z,13.85
2023-05-14T06:29:08.245Z,12.73
2023-05-14T06:31:35.631Z,13.60
2023-05-14T06:34:02.827Z,12.07
2023-05-14T06:36:30.133Z,12.88
2023-05-14T06:38:58.881Z,13.50
2023-05-14T06:41:26.222Z,12.50
2023-05-14T06:43:53.590Z,10.23
2023-05-14T06:46:20.759Z,12.43
2023-05-14T06:48:48.064Z,11.65
2023-05-14T06:51:15.575Z,11.10
2023-05-14T06:53:42.868Z,12.53
2023-05-14T06:56:10.079Z,12.60
2023-05-14T06:58:37.588Z,10.43
2023-05-14T07:01:05.021Z,10.77
2023-05-14T07:03:32.245Z,11.52
2023-05-14T07:05:59.534Z,11.97
2023-05-14T07:08:26.715Z,11.80
2023-05-14T07:10:53.919Z,11.57
2023-05-14T07:13:21.356Z,12.05
2023-05-14T07:15:48.549Z,11.02
2023-05-14T07:18:15.766Z,11.50
2023-05-14T07:20:43.469Z,9.77
2023-05-14T07:23:10.651Z,13.70
2023-05-14T07:25:38.039Z,10.93
2023-05-14T07:28:05.257Z,13.68
2023-05-14T07:30:32.819Z,9.27
2023-05-14T07:33:00.236Z,10.65
2023-05-14T07:35:27.452Z,12.68
2023-05-14T07:37:54.678Z,11.80
2023-05-14T07:40:22.609Z,11.88
2023-05-14T07:42:50.086Z,9.63
2023-05-14T07:45:17.383Z,11.65
2023-05-14T07:47:44.815Z,13.48
2023-05-14T07:50:12.620Z,11.80
2023-05-14T07:52:39.924Z,12.75
2023-05-14T07:55:07.374Z,14.00
2023-05-14T07:57:34.604Z,13.15
2023-05-14T08:00:02.078Z,10.98
2023-05-14T08:02:29.779Z,11.50
2023-05-14T08:04:57.531Z,12.23
2023-05-14T08:07:24.960Z,12.63
2023-05-14T08:09:52.257Z,10.93
2023-05-14T08:12:19.752Z,11.13
2023-05-14T08:14:47.068Z,11.40
2023-05-14T08:17:14.395Z,10.05
2023-05-14T08:19:41.746Z,9.63
2023-05-14T08:22:08.997Z,11.48
2023-05-14T08:24:36.417Z,11.13
2023-05-14T08:27:03.619Z,11.77
2023-05-14T08:29:30.952Z,12.10
2023-05-14T08:31:59.086Z,9.10
2023-05-14T08:34:28.078Z,11.10
2023-05-14T08:36:55.420Z,10.23
2023-05-14T08:39:22.642Z,11.40
2023-05-14T08:41:49.970Z,9.60
2023-05-14T08:44:20.901Z,10.07
2023-05-14T08:46:51.135Z,11.55
2023-05-14T08:49:30.634Z,10.02
2023-05-14T08:51:58.170Z,10.27
2023-05-14T08:54:26.354Z,10.40
2023-05-14T08:56:53.814Z,9.13
2023-05-14T08:59:21.229Z,11.60
2023-05-14T09:01:49.275Z,9.65
2023-05-14T09:04:17.745Z,8.05
2023-05-14T09:06:45.693Z,9.95
2023-05-14T09:09:13.089Z,9.27
2023-05-14T09:11:43.946Z,8.98
2023-05-14T09:14:11.286Z,9.02
2023-05-14T09:16:39.118Z,8.65
2023-05-14T09:19:07.475Z,9.20
2023-05-14T09:21:35.634Z,7.40
2023-05-14T09:24:03.025Z,9.07
2023-05-14T09:26:32.395Z,8.80
2023-05-14T09:29:02.028Z,9.88
2023-05-14T09:31:32.852Z,12.52
2023-05-14T09:34:00.696Z,9.50
2023-05-14T09:36:28.209Z,8.82
2023-05-14T09:38:58.725Z,8.25
2023-05-14T09:41:25.904Z,9.32
2023-05-14T09:43:54.680Z,10.32
2023-05-14T09:46:22.603Z,8.00
2023-05-14T09:48:50.036Z,8.73
2023-05-14T09:51:17.895Z,8.63
2023-05-14T09:53:45.359Z,8.25
2023-05-14T09:56:12.698Z,7.55
2023-05-14T09:58:39.902Z,9.40
2023-05-14T10:01:07.556Z,6.90
2023-05-14T10:03:34.842Z,7.90
2023-05-14T10:06:05.902Z,9.75
2023-05-14T10:08:36.867Z,7.35
2023-05-14T10:11:09.262Z,11.23
2023-05-14T10:13:40.757Z,12.32
2023-05-14T10:16:07.974Z,10.32
2023-05-14T10:18:39.495Z,9.38
2023-05-14T10:21:07.741Z,8.73
2023-05-14T10:23:37.749Z,10.37
2023-05-14T10:26:05.459Z,8.65
2023-05-14T10:28:32.923Z,9.95
2023-05-14T10:31:00.898Z,8.07
2023-05-14T10:33:28.382Z,10.70
2023-05-14T10:35:57.837Z,9.97
2023-05-14T10:38:29.404Z,9.55
2023-05-14T10:41:00.707Z,8.73
2023-05-14T10:43:31.691Z,7.72
2023-05-14T10:45:59.387Z,7.25
2023-05-14T10:48:27.034Z,8.10
2023-05-14T10:50:54.536Z,10.43
2023-05-14T10:53:22.452Z,8.25
2023-05-14T10:55:49.735Z,9.63
2023-05-14T10:58:16.922Z,9.25
2023-05-14T11:00:49.825Z,7.43
2023-05-14T11:03:17.298Z,11.95
2023-05-14T11:05:44.955Z,10.35
2023-05-14T11:08:13.381Z,10.30
2023-05-14T11:10:40.670Z,8.07
2023-05-14T11:13:08.922Z,9.30
2023-05-14T11:15:36.289Z,11.40
2023-05-14T11:18:03.611Z,8.93
2023-05-14T11:20:32.906Z,8.68
2023-05-14T11:23:00.419Z,9.00
2023-05-14T11:25:27.784Z,10.07
2023-05-14T11:27:58.661Z,10.05
2023-05-14T11:30:26.213Z,9.57
2023-05-14T11:32:54.409Z,10.10
2023-05-14T11:35:21.742Z,11.63
2023-05-14T11:37:52.502Z,10.83
2023-05-14T11:40:19.832Z,9.93
2023-05-14T11:42:47.068Z,8.88
2023-05-14T11:45:15.073Z,10.48
2023-05-14T11:47:42.981Z,9.85
2023-05-14T11:50:11.162Z,8.60
2023-05-14T11:52:39.196Z,9.80
2023-05-14T11:55:06.756Z,9.20
2023-05-14T11:57:34.064Z,10.68
2023-05-14T12:00:01.477Z,9.77
2023-05-14T12:02:29.560Z,8.83
2023-05-14T12:04:57.011Z,9.13
2023-05-14T12:07:24.352Z,8.25
2023-05-14T12:09:51.685Z,10.40
2023-05-14T12:12:20.029Z,11.35
2023-05-14T12:14:48.040Z,9.77
2023-05-14T12:17:19.304Z,8.75
2023-05-14T12:19:47.487Z,14.60
2023-05-14T12:22:16.356Z,10.05
2023-05-14T12:24:56.752Z,10.20
2023-05-14T12:27:24.761Z,10.77
2023-05-14T12:29:53.520Z,10.15
2023-05-14T12:32:20.907Z,10.30
2023-05-14T12:34:48.051Z,8.57
2023-05-14T12:37:15.176Z,9.05
2023-05-14T12:39:42.350Z,9.03
2023-05-14T12:42:09.528Z,7.88
2023-05-14T12:44:36.707Z,10.48
2023-05-14T12:47:04.038Z,7.78
2023-05-14T12:49:31.396Z,11.63
2023-05-14T12:52:13.126Z,9.73
2023-05-14T12:54:45.909Z,10.15
2023-05-14T12:57:13.289Z,8.85
2023-05-14T12:59:41.241Z,8.68
2023-05-14T13:02:08.580Z,8.05
2023-05-14T13:04:36.045Z,10.37
2023-05-14T13:07:03.515Z,9.52
2023-05-14T13:09:30.823Z,13.55
2023-05-14T13:11:58.101Z,10.63
2023-05-14T13:14:25.381Z,9.70
2023-05-14T13:16:52.774Z,9.40
2023-05-14T13:19:20.007Z,13.27
2023-05-14T13:21:47.199Z,9.52
2023-05-14T13:24:17.108Z,9.25
2023-05-14T13:26:45.062Z,7.95
2023-05-14T13:29:12.515Z,14.73
2023-05-14T13:31:39.666Z,13.38
2023-05-14T13:34:06.816Z,8.45
2023-05-14T13:36:34.172Z,10.48
2023-05-14T13:39:01.332Z,8.80
2023-05-14T13:41:28.691Z,9.20
2023-05-14T13:43:55.987Z,7.85
2023-05-14T13:46:23.257Z,8.65
2023-05-14T13:48:50.418Z,9.07
2023-05-14T13:51:17.793Z,9.32
2023-05-14T13:53:45.061Z,8.27
2023-05-14T13:56:13.279Z,9.45
2023-05-14T13:58:40.732Z,9.98
2023-05-14T14:01:07.976Z,7.95
2023-05-14T14:03:35.502Z,9.65
2023-05-14T14:06:02.848Z,7.60
2023-05-14T14:08:31.176Z,15.60
2023-05-14T14:10:58.394Z,9.73
2023-05-14T14:13:26.034Z,12.80
2023-05-14T14:15:53.379Z,12.48
2023-05-14T14:18:20.856Z,12.57
2023-05-14T14:20:48.248Z,7.30
2023-05-14T14:23:15.420Z,8.90
2023-05-14T14:25:42.791Z,6.30
2023-05-14T14:28:09.905Z,9.40
2023-05-14T14:30:37.045Z,7.93
2023-05-14T14:33:04.413Z,6.95
2023-05-14T14:35:33.313Z,8.50
2023-05-14T14:38:00.476Z,8.68
2023-05-14T14:40:27.609Z,6.80
2023-05-14T14:42:54.705Z,7.13
2023-05-14T14:45:22.069Z,7.25
2023-05-14T14:47:49.757Z,12.90
2023-05-14T14:50:16.944Z,6.75
2023-05-14T14:52:46.034Z,7.03
2023-05-14T14:55:13.421Z,7.10
2023-05-14T14:57:40.658Z,8.63
2023-05-14T15:00:09.329Z,8.05
2023-05-14T15:02:38.552Z,6.22
2023-05-14T15:05:06.055Z,6.07
2023-05-14T15:07:33.311Z,6.60
2023-05-14T15:10:00.467Z,9.60
2023-05-14T15:12:27.617Z,8.27
2023-05-14T15:14:54.764Z,6.80
2023-05-14T15:17:21.896Z,6.93
2023-05-14T15:19:49.067Z,7.97
2023-05-14T15:22:16.386Z,6.28
2023-05-14T15:24:43.496Z,7.65
2023-05-14T15:27:10.704Z,5.90
2023-05-14T15:29:37.813Z,8.57
2023-05-14T15:32:05.390Z,8.23
2023-05-14T15:34:32.582Z,6.13
2023-05-14T15:36:59.733Z,6.75
2023-05-14T15:39:28.465Z,5.60
2023-05-14T15:41:57.199Z,6.30
2023-05-14T15:44:24.342Z,8.53
2023-05-14T15:46:51.689Z,7.00
2023-05-14T15:49:19.103Z,6.32
2023-05-14T15:51:46.234Z,6.80
2023-05-14T15:54:13.378Z,6.20
2023-05-14T15:56:41.107Z,10.80
2023-05-14T15:59:08.272Z,7.68
2023-05-14T16:01:35.557Z,5.88
2023-05-14T16:04:02.832Z,8.07
2023-05-14T16:06:30.032Z,7.72
2023-05-14T16:08:57.262Z,10.13
2023-05-14T16:11:24.396Z,6.07
2023-05-14T16:13:51.637Z,6.72
2023-05-14T16:16:20.659Z,7.22
2023-05-14T16:18:47.887Z,7.72
2023-05-14T16:21:15.066Z,8.47
2023-05-14T16:23:42.382Z,7.65
2023-05-14T16:26:09.552Z,7.30
2023-05-14T16:28:36.703Z,7.32
2023-05-14T16:31:03.967Z,7.55
2023-05-14T16:33:31.161Z,9.67
2023-05-14T16:35:58.288Z,8.40
2023-05-14T16:38:25.499Z,14.48
2023-05-14T16:40:52.632Z,7.57
2023-05-14T16:43:19.773Z,8.82
2023-05-14T16:45:46.928Z,8.87
2023-05-14T16:48:14.094Z,8.68
2023-05-14T16:50:41.278Z,12.32
2023-05-14T16:53:08.448Z,9.95
2023-05-14T16:55:35.631Z,10.75
2023-05-14T16:58:02.794Z,10.90
2023-05-14T17:00:29.967Z,9.90
2023-05-14T17:02:57.328Z,13.07
2023-05-14T17:05:24.641Z,12.00
2023-05-14T17:07:51.974Z,12.50
2023-05-14T17:10:19.224Z,11.13
2023-05-14T17:12:46.520Z,11.13
2023-05-14T17:15:14.126Z,10.57
2023-05-14T17:17:41.299Z,10.13
2023-05-14T17:20:08.871Z,9.63
2023-05-14T17:22:36.091Z,9.50
2023-05-14T17:25:03.328Z,8.60
2023-05-14T17:27:33.146Z,11.98
2023-05-14T17:30:03.637Z,15.02
2023-05-14T17:32:31.310Z,11.00
2023-05-14T17:34:58.651Z,13.33
2023-05-14T17:37:26.420Z,11.10
2023-05-14T17:39:54.148Z,9.63
2023-05-14T17:42:21.284Z,10.15
2023-05-14T17:44:48.411Z,11.93
2023-05-14T17:47:15.654Z,13.70
2023-05-14T17:49:42.734Z,11.25
2023-05-14T17:52:09.912Z,12.82
2023-05-14T17:54:37.087Z,12.27
2023-05-14T17:57:04.297Z,11.27
2023-05-14T17:59:31.514Z,13.83
2023-05-14T18:01:58.686Z,11.15
2023-05-14T18:04:25.770Z,12.60
2023-05-14T18:06:52.930Z,11.50
2023-05-14T18:09:20.258Z,12.60
2023-05-14T18:11:47.425Z,13.40
2023-05-14T18:14:14.562Z,11.70
2023-05-14T18:16:41.758Z,17.92
2023-05-14T18:19:09.153Z,13.40
2023-05-14T18:21:36.422Z,14.95
2023-05-14T18:24:03.513Z,13.77
2023-05-14T18:26:32.919Z,12.70
2023-05-14T18:29:01.298Z,13.77
2023-05-14T18:31:28.625Z,13.23
2023-05-14T18:33:55.857Z,11.70
2023-05-14T18:36:23.037Z,15.73
2023-05-14T18:38:50.201Z,12.38
2023-05-14T18:41:17.338Z,12.57
2023-05-14T18:43:44.629Z,12.27
2023-05-14T18:46:12.339Z,13.90
2023-05-14T18:48:39.536Z,15.20
2023-05-14T18:51:06.850Z,13.70
2023-05-14T18:53:34.110Z,14.77
2023-05-14T18:56:01.325Z,13.95
2023-05-14T18:58:28.489Z,13.80
2023-05-14T19:00:57.803Z,13.97
2023-05-14T19:03:25.126Z,14.55
2023-05-14T19:05:53.660Z,11.80
2023-05-14T19:08:20.797Z,13.45
2023-05-14T19:10:48.526Z,12.73
2023-05-14T19:13:18.625Z,14.20
2023-05-14T19:15:45.939Z,11.88
2023-05-14T19:18:13.871Z,13.65
2023-05-14T19:20:42.183Z,12.50
2023-05-14T19:23:09.456Z,11.95
2023-05-14T19:25:36.704Z,12.57
2023-05-14T19:28:04.789Z,11.48
2023-05-14T19:30:32.123Z,11.95
2023-05-14T19:32:59.290Z,13.77
2023-05-14T19:35:26.728Z,15.75
2023-05-14T19:37:54.005Z,12.10
2023-05-14T19:40:21.220Z,12.82
2023-05-14T19:42:48.448Z,15.30
2023-05-14T19:45:15.632Z,14.68
2023-05-14T19:47:43.000Z,14.75
2023-05-14T19:50:10.499Z,12.67
2023-05-14T19:52:37.618Z,13.88
2023-05-14T19:55:04.891Z,14.40
2023-05-14T19:57:32.107Z,16.23
2023-05-14T19:59:59.226Z,13.15
2023-05-14T20:02:26.674Z,13.03
2023-05-14T20:04:56.639Z,13.40
2023-05-14T20:07:25.542Z,14.55
2023-05-14T20:09:52.725Z,15.00
2023-05-14T20:12:19.878Z,12.43
2023-05-14T20:14:47.095Z,19.60
2023-05-14T20:17:14.321Z,12.05
2023-05-14T20:19:41.677Z,13.98
2023-05-14T20:22:08.880Z,19.60
2023-05-14T20:24:36.043Z,12.52
2023-05-14T20:27:03.267Z,12.90
2023-05-14T20:29:30.412Z,15.00
2023-05-14T20:31:57.633Z,12.60
2023-05-14T20:34:24.952Z,13.63
2023-05-14T20:36:52.269Z,12.45
2023-05-14T20:39:19.464Z,13.90
2023-05-14T20:41:46.600Z,11.93
2023-05-14T20:44:13.744Z,13.45
2023-05-14T20:46:41.039Z,14.93
2023-05-14T20:49:08.223Z,14.77
2023-05-14T20:51:35.484Z,14.27
2023-05-14T20:54:02.768Z,13.38
2023-05-14T20:56:30.338Z,13.23
2023-05-14T20:58:57.560Z,12.18
2023-05-14T21:01:24.798Z,13.30
2023-05-14T21:03:52.151Z,14.73
2023-05-14T21:06:19.527Z,12.98
2023-05-14T21:08:46.627Z,13.00
2023-05-14T21:11:14.363Z,13.90
2023-05-14T21:13:41.538Z,13.48
2023-05-14T21:16:08.958Z,13.03
2023-05-14T21:18:36.619Z,14.85
2023-05-14T21:21:03.995Z,15.30
2023-05-14T21:23:31.260Z,11.50
2023-05-14T21:25:58.472Z,14.13
2023-05-14T21:28:25.629Z,13.03
2023-05-14T21:30:53.037Z,14.65
2023-05-14T21:33:20.245Z,12.52
2023-05-14T21:35:47.358Z,15.23
2023-05-14T21:38:14.502Z,18.05
2023-05-14T21:40:41.713Z,14.37
2023-05-14T21:43:08.905Z,16.27
2023-05-14T21:45:36.189Z,15.27
2023-05-14T21:48:03.398Z,14.02
2023-05-14T21:50:30.749Z,14.27
2023-05-14T21:52:57.892Z,16.77
2023-05-14T21:55:25.738Z,14.77
2023-05-14T21:57:53.225Z,14.05
2023-05-14T22:00:23.557Z,13.45
2023-05-14T22:02:51.315Z,15.93
2023-05-14T22:05:18.580Z,12.63
2023-05-14T22:07:45.966Z,13.35
2023-05-14T22:10:14.199Z,13.80
2023-05-14T22:12:41.424Z,14.90
2023-05-14T22:15:08.864Z,13.77
2023-05-14T22:17:36.098Z,12.10
2023-05-14T22:20:05.511Z,12.95
2023-05-14T22:22:32.877Z,15.45
2023-05-14T22:25:00.055Z,14.90
2023-05-14T22:27:27.154Z,14.40
2023-05-14T22:29:55.189Z,14.83
2023-05-14T22:32:22.318Z,15.80
2023-05-14T22:34:49.529Z,13.57
2023-05-14T22:37:16.823Z,14.88
2023-05-14T22:39:44.130Z,16.83
2023-05-14T22:42:11.460Z,17.30
2023-05-14T22:44:38.641Z,17.75
2023-05-14T22:47:06.068Z,19.50
2023-05-14T22:49:33.239Z,17.13
2023-05-14T22:52:00.549Z,18.75
2023-05-14T22:54:27.664Z,17.10
2023-05-14T22:56:54.847Z,20.67
2023-05-14T22:59:23.715Z,19.83
2023-05-14T23:01:51.301Z,21.63
2023-05-14T23:04:18.535Z,20.58
2023-05-14T23:06:45.769Z,20.90
2023-05-14T23:09:12.963Z,22.33
2023-05-14T23:11:40.133Z,21.30
2023-05-14T23:14:07.308Z,20.55
2023-05-14T23:16:34.467Z,19.48
2023-05-14T23:19:01.775Z,20.97
2023-05-14T23:21:29.068Z,24.45
2023-05-14T23:23:56.298Z,21.92
2023-05-14T23:26:23.633Z,21.25
2023-05-14T23:28:51.610Z,19.98
2023-05-14T23:31:18.892Z,21.03
2023-05-14T23:33:46.632Z,21.23
2023-05-14T23:36:13.921Z,20.45
2023-05-14T23:38:41.183Z,22.02
2023-05-14T23:41:08.327Z,22.42
2023-05-14T23:43:35.943Z,21.13
2023-05-14T23:46:03.351Z,22.00
2023-05-14T23:48:30.697Z,22.73
2023-05-14T23:50:57.881Z,22.40
2023-05-14T23:53:25.006Z,25.15
2023-05-14T23:55:52.213Z,25.00
2023-05-14T23:58:19.363Z,22.10
